createdAt,value
2023-05-25T00:01:37.125Z,4.78
2023-05-25T00:04:04.582Z,3.45
2023-05-25T00:06:32.763Z,4.18
2023-05-25T00:08:59.560Z,4.05
2023-05-25T00:11:27.159Z,3.30
2023-05-25T00:13:54.260Z,4.47
2023-05-25T00:16:21.632Z,4.03
2023-05-25T00:18:48.796Z,4.75
2023-05-25T00:21:16.140Z,4.15
2023-05-25T00:23:43.404Z,3.53
2023-05-25T00:26:10.120Z,5.15
2023-05-25T00:28:36.878Z,3.70
2023-05-25T00:31:03.785Z,4.38
2023-05-25T00:33:30.892Z,4.70
2023-05-25T00:35:58.587Z,3.05
2023-05-25T00:38:25.351Z,3.30
2023-05-25T00:40:56.262Z,3.50
2023-05-25T00:43:23.231Z,3.65
2023-05-25T00:45:53.859Z,3.45
2023-05-25T00:48:20.643Z,3.58
2023-05-25T00:50:47.419Z,3.25
2023-05-25T00:53:14.648Z,4.25
2023-05-25T00:55:54.471Z,4.03
2023-05-25T00:58:23.693Z,4.07
2023-05-25T01:00:53.420Z,3.40
2023-05-25T01:03:22.286Z,3.30
2023-05-25T01:05:54.221Z,3.75
2023-05-25T01:08:23.569Z,3.95
2023-05-25T01:10:52.748Z,4.20
2023-05-25T01:13:21.037Z,4.13
2023-05-25T01:15:48.590Z,3.20
2023-05-25T01:18:16.819Z,3.63
2023-05-25T01:21:02.157Z,4.28
2023-05-25T01:23:34.843Z,3.90
2023-05-25T01:26:06.990Z,4.00
2023-05-25T01:28:40.683Z,3.78
2023-05-25T01:31:09.226Z,3.95
2023-05-25T01:33:37.024Z,4.22
2023-05-25T01:36:04.863Z,4.07
2023-05-25T01:38:31.825Z,3.80
2023-05-25T01:40:58.510Z,4.00
2023-05-25T01:43:25.489Z,4.18
2023-05-25T01:45:58.146Z,4.88
2023-05-25T01:48:54.669Z,3.55
2023-05-25T01:51:38.429Z,3.72
2023-05-25T01:54:17.936Z,4.82
2023-05-25T01:56:46.893Z,4.07
2023-05-25T01:59:16.398Z,4.07
2023-05-25T02:01:44.273Z,3.95
2023-05-25T02:04:11.732Z,3.55
2023-05-25T02:06:39.099Z,3.95
2023-05-25T02:09:05.920Z,3.50
2023-05-25T02:11:32.629Z,4.35
2023-05-25T02:13:59.427Z,4.05
2023-05-25T02:16:27.363Z,4.05
2023-05-25T02:18:54.856Z,4.47
2023-05-25T02:21:21.827Z,3.15
2023-05-25T02:23:49.332Z,4.25
2023-05-25T02:26:16.717Z,4.65
2023-05-25T02:28:43.479Z,5.93
2023-05-25T02:31:10.309Z,4.75
2023-05-25T02:33:37.019Z,3.38
2023-05-25T02:36:05.211Z,4.47
2023-05-25T02:38:31.975Z,4.07
2023-05-25T02:40:58.700Z,4.72
2023-05-25T02:43:25.528Z,4.00
2023-05-25T02:45:52.206Z,4.05
2023-05-25T02:48:18.976Z,5.00
2023-05-25T02:50:45.764Z,6.00
2023-05-25T02:53:12.460Z,5.55
2023-05-25T02:55:40.444Z,4.18
2023-05-25T02:58:07.239Z,4.93
2023-05-25T03:00:34.128Z,3.85
2023-05-25T03:03:01.052Z,4.78
2023-05-25T03:05:27.896Z,4.13
2023-05-25T03:07:54.743Z,6.07
2023-05-25T03:10:21.518Z,4.00
2023-05-25T03:12:48.258Z,4.30
2023-05-25T03:15:15.099Z,4.90
2023-05-25T03:17:41.946Z,4.03
2023-05-25T03:20:10.576Z,3.88
2023-05-25T03:22:37.496Z,4.10
2023-05-25T03:25:04.532Z,4.07
2023-05-25T03:27:31.268Z,4.40
2023-05-25T03:29:58.006Z,4.47
2023-05-25T03:32:24.938Z,4.28
2023-05-25T03:34:51.692Z,3.95
2023-05-25T03:37:18.426Z,4.43
2023-05-25T03:39:45.227Z,4.38
2023-05-25T03:42:11.906Z,3.88
2023-05-25T03:44:41.222Z,4.47
2023-05-25T03:47:08.221Z,6.53
2023-05-25T03:49:34.908Z,4.30
2023-05-25T03:52:01.703Z,4.28
2023-05-25T03:54:28.545Z,4.22
2023-05-25T03:56:56.743Z,5.55
2023-05-25T03:59:23.715Z,4.15
2023-05-25T04:01:50.517Z,3.90
2023-05-25T04:04:17.449Z,6.57
2023-05-25T04:06:49.058Z,5.00
2023-05-25T04:09:15.856Z,4.18
2023-05-25T04:11:42.633Z,4.32
2023-05-25T04:14:09.305Z,4.10
2023-05-25T04:16:36.284Z,4.05
2023-05-25T04:19:03.139Z,4.00
2023-05-25T04:21:29.789Z,5.18
2023-05-25T04:23:56.520Z,4.70
2023-05-25T04:26:23.765Z,4.20
2023-05-25T04:28:50.463Z,4.55
2023-05-25T04:31:17.297Z,3.80
2023-05-25T04:33:44.836Z,4.05
2023-05-25T04:36:11.606Z,4.10
2023-05-25T04:38:38.400Z,4.25
2023-05-25T04:41:06.464Z,3.90
2023-05-25T04:43:33.743Z,3.83
2023-05-25T04:46:00.707Z,4.07
2023-05-25T04:48:32.625Z,3.58
2023-05-25T04:51:02.956Z,3.95
2023-05-25T04:53:30.079Z,3.60
2023-05-25T04:55:57.723Z,4.05
2023-05-25T04:58:24.721Z,4.05
2023-05-25T05:00:52.819Z,4.50
2023-05-25T05:03:19.731Z,6.65
2023-05-25T05:05:46.843Z,4.63
2023-05-25T05:08:13.923Z,4.57
2023-05-25T05:10:40.761Z,4.20
2023-05-25T05:13:07.500Z,4.80
2023-05-25T05:15:34.269Z,6.10
2023-05-25T05:18:01.217Z,4.50
2023-05-25T05:20:28.240Z,4.47
2023-05-25T05:22:54.985Z,4.03
2023-05-25T05:25:21.759Z,5.10
2023-05-25T05:27:48.560Z,3.67
2023-05-25T05:30:15.405Z,4.47
2023-05-25T05:32:42.938Z,4.05
2023-05-25T05:35:10.898Z,5.10
2023-05-25T05:37:37.727Z,4.50
2023-05-25T05:40:05.005Z,5.32
2023-05-25T05:42:31.772Z,5.32
2023-05-25T05:44:58.573Z,4.15
2023-05-25T05:47:25.584Z,4.32
2023-05-25T05:49:52.488Z,4.97
2023-05-25T05:52:19.156Z,4.97
2023-05-25T05:54:45.870Z,5.25
2023-05-25T05:57:12.648Z,4.30
2023-05-25T05:59:39.523Z,3.92
2023-05-25T06:02:07.435Z,4.38
2023-05-25T06:04:34.261Z,4.65
2023-05-25T06:07:01.047Z,4.22
2023-05-25T06:09:27.842Z,4.65
2023-05-25T06:11:54.547Z,4.47
2023-05-25T06:14:21.277Z,4.30
2023-05-25T06:16:48.246Z,5.07
2023-05-25T06:19:15.034Z,4.75
2023-05-25T06:21:41.751Z,4.90
2023-05-25T06:24:08.783Z,5.47
2023-05-25T06:26:35.606Z,4.38
2023-05-25T06:29:02.537Z,4.75
2023-05-25T06:31:29.270Z,4.57
2023-05-25T06:33:56.073Z,4.38
2023-05-25T06:36:22.806Z,5.25
2023-05-25T06:38:49.472Z,3.85
2023-05-25T06:41:16.202Z,4.53
2023-05-25T06:43:42.923Z,5.18
2023-05-25T06:46:10.492Z,4.95
2023-05-25T06:48:39.069Z,5.03
2023-05-25T06:51:06.120Z,5.35
2023-05-25T06:53:32.824Z,5.25
2023-05-25T06:55:59.611Z,4.57
2023-05-25T06:58:27.280Z,5.38
2023-05-25T07:00:54.105Z,4.85
2023-05-25T07:03:21.007Z,5.20
2023-05-25T07:05:47.829Z,4.50
2023-05-25T07:08:14.529Z,5.45
2023-05-25T07:10:41.263Z,5.65
2023-05-25T07:13:07.957Z,5.18
2023-05-25T07:15:34.642Z,5.93
2023-05-25T07:18:01.491Z,4.78
2023-05-25T07:20:28.217Z,4.38
2023-05-25T07:22:55.018Z,4.78
2023-05-25T07:25:21.854Z,4.78
2023-05-25T07:27:50.397Z,5.72
2023-05-25T07:30:17.253Z,4.82
2023-05-25T07:32:44.051Z,4.97
2023-05-25T07:35:10.821Z,5.32
2023-05-25T07:37:37.627Z,5.68
2023-05-25T07:40:06.124Z,4.43
2023-05-25T07:42:34.432Z,5.07
2023-05-25T07:45:01.893Z,4.93
2023-05-25T07:47:28.920Z,4.65
2023-05-25T07:49:55.674Z,5.03
2023-05-25T07:52:22.358Z,5.28
2023-05-25T07:54:49.156Z,4.95
2023-05-25T07:57:15.981Z,4.90
2023-05-25T07:59:42.751Z,5.10
2023-05-25T08:02:09.667Z,4.78
2023-05-25T08:04:37.473Z,4.85
2023-05-25T08:07:04.643Z,4.63
2023-05-25T08:09:31.461Z,4.35
2023-05-25T08:12:21.405Z,5.07
2023-05-25T08:14:45.113Z,4.80
2023-05-25T08:17:12.504Z,4.78
2023-05-25T08:19:39.448Z,4.50
2023-05-25T08:22:06.424Z,5.25
2023-05-25T08:24:33.394Z,6.00
2023-05-25T08:27:02.048Z,5.03
2023-05-25T08:29:29.035Z,5.85
2023-05-25T08:31:55.906Z,5.80
2023-05-25T08:34:22.770Z,5.63
2023-05-25T08:36:49.776Z,5.20
2023-05-25T08:39:16.792Z,5.93
2023-05-25T08:41:45.173Z,5.15
2023-05-25T08:44:14.425Z,4.50
2023-05-25T08:46:41.661Z,4.43
2023-05-25T08:49:13.536Z,4.75
2023-05-25T08:54:22.710Z,5.85
2023-05-25T08:56:55.230Z,5.22
2023-05-25T08:59:50.441Z,5.13
2023-05-25T09:02:42.253Z,5.72
2023-05-25T09:05:09.932Z,5.03
2023-05-25T09:07:37.118Z,5.60
2023-05-25T09:10:04.879Z,6.10
2023-05-25T09:12:32.311Z,5.35
2023-05-25T09:14:59.782Z,6.55
2023-05-25T09:17:27.393Z,5.63
2023-05-25T09:19:54.921Z,7.07
2023-05-25T09:22:22.419Z,6.70
2023-05-25T09:24:49.627Z,6.32
2023-05-25T09:27:19.131Z,6.68
2023-05-25T09:29:51.021Z,7.10
2023-05-25T09:32:21.057Z,5.90
2023-05-25T09:34:48.217Z,5.88
2023-05-25T09:37:17.302Z,6.40
2023-05-25T09:39:44.935Z,6.55
2023-05-25T09:42:12.478Z,6.22
2023-05-25T09:44:40.652Z,6.00
2023-05-25T09:47:07.414Z,5.78
2023-05-25T09:49:34.171Z,6.40
2023-05-25T09:52:01.533Z,5.57
2023-05-25T09:54:29.305Z,5.30
2023-05-25T09:56:56.167Z,6.03
2023-05-25T09:59:24.097Z,6.72
2023-05-25T10:01:53.602Z,5.22
2023-05-25T10:04:20.970Z,5.70
2023-05-25T10:06:51.794Z,6.13
2023-05-25T10:09:19.835Z,4.43
2023-05-25T10:11:50.611Z,5.43
2023-05-25T10:14:25.905Z,5.72
2023-05-25T10:16:57.587Z,6.13
2023-05-25T10:19:33.562Z,5.28
2023-05-25T10:22:29.490Z,5.60
2023-05-25T10:25:12.889Z,6.85
2023-05-25T10:27:41.813Z,5.47
2023-05-25T10:30:13.833Z,5.22
2023-05-25T10:32:42.705Z,5.15
2023-05-25T10:35:11.212Z,5.45
2023-05-25T10:37:39.631Z,5.32
2023-05-25T10:40:08.674Z,4.20
2023-05-25T10:42:37.437Z,5.57
2023-05-25T10:45:07.251Z,5.25
2023-05-25T10:47:37.355Z,5.78
2023-05-25T10:50:04.446Z,5.85
2023-05-25T10:52:33.105Z,5.63
2023-05-25T10:55:01.863Z,5.65
2023-05-25T10:57:28.906Z,6.35
2023-05-25T11:00:06.792Z,5.53
2023-05-25T11:02:50.552Z,6.00
2023-05-25T11:05:30.442Z,5.18
2023-05-25T11:08:03.072Z,5.10
2023-05-25T11:10:47.869Z,5.05
2023-05-25T11:13:43.801Z,4.95
2023-05-25T11:16:34.389Z,4.60
2023-05-25T11:19:01.773Z,5.00
2023-05-25T11:21:28.899Z,4.90
2023-05-25T11:24:12.419Z,6.03
2023-05-25T11:26:54.706Z,4.85
2023-05-25T11:29:22.396Z,6.50
2023-05-25T11:31:56.207Z,5.03
2023-05-25T11:34:24.435Z,5.07
2023-05-25T11:37:03.881Z,4.78
2023-05-25T11:39:34.106Z,5.53
2023-05-25T11:42:06.728Z,5.00
2023-05-25T11:44:36.404Z,4.68
2023-05-25T11:47:13.328Z,4.78
2023-05-25T11:49:46.871Z,5.18
2023-05-25T11:52:14.894Z,5.63
2023-05-25T11:54:42.293Z,4.68
2023-05-25T11:57:24.694Z,5.20
2023-05-25T12:00:01.852Z,4.97
2023-05-25T12:02:37.215Z,5.63
2023-05-25T12:05:04.515Z,4.88
2023-05-25T12:07:32.033Z,4.40
2023-05-25T12:10:09.801Z,4.68
2023-05-25T12:12:48.290Z,5.45
2023-05-25T12:15:23.141Z,4.65
2023-05-25T12:17:51.536Z,4.85
2023-05-25T12:20:18.929Z,5.20
2023-05-25T12:22:46.806Z,4.88
2023-05-25T12:25:15.838Z,4.63
2023-05-25T12:27:42.619Z,4.97
2023-05-25T12:30:10.546Z,4.82
2023-05-25T12:32:53.622Z,5.15
2023-05-25T12:35:20.574Z,4.07
2023-05-25T12:37:48.013Z,4.32
2023-05-25T12:40:21.470Z,4.97
2023-05-25T12:42:57.155Z,5.22
2023-05-25T12:45:24.586Z,5.28
2023-05-25T12:47:51.569Z,5.25
2023-05-25T12:50:19.412Z,5.05
2023-05-25T12:52:47.754Z,4.70
2023-05-25T12:55:25.920Z,4.60
2023-05-25T12:58:26.493Z,5.05
2023-05-25T13:00:53.220Z,4.90
2023-05-25T13:03:20.166Z,4.57
2023-05-25T13:05:46.965Z,4.75
2023-05-25T13:08:13.744Z,5.30
2023-05-25T13:10:40.551Z,5.07
2023-05-25T13:13:07.322Z,4.45
2023-05-25T13:15:34.040Z,5.15
2023-05-25T13:18:00.970Z,4.47
2023-05-25T13:20:30.565Z,4.82
2023-05-25T13:22:57.592Z,5.45
2023-05-25T13:25:27.269Z,4.80
2023-05-25T13:27:54.994Z,4.20
2023-05-25T13:30:22.451Z,4.68
2023-05-25T13:32:51.603Z,4.40
2023-05-25T13:35:23.267Z,4.53
2023-05-25T13:37:51.078Z,4.47
2023-05-25T13:40:18.081Z,4.40
2023-05-25T13:42:44.753Z,4.65
2023-05-25T13:45:14.078Z,4.70
2023-05-25T13:47:43.491Z,4.45
2023-05-25T13:50:11.100Z,4.70
2023-05-25T13:52:37.780Z,4.75
2023-05-25T13:55:04.840Z,3.72
2023-05-25T13:57:31.611Z,3.88
2023-05-25T13:59:58.377Z,4.05
2023-05-25T14:02:25.175Z,4.32
2023-05-25T14:04:52.015Z,4.65
2023-05-25T14:07:18.686Z,4.47
2023-05-25T14:09:45.567Z,3.92
2023-05-25T14:12:14.212Z,3.85
2023-05-25T14:14:41.179Z,4.03
2023-05-25T14:17:07.891Z,4.05
2023-05-25T14:19:35.331Z,4.57
2023-05-25T14:24:31.917Z,5.32
2023-05-25T14:26:59.044Z,4.68
2023-05-25T14:29:25.812Z,4.82
2023-05-25T14:31:52.814Z,4.38
2023-05-25T14:34:19.699Z,4.10
2023-05-25T14:36:46.394Z,3.97
2023-05-25T14:39:15.698Z,4.32
2023-05-25T14:41:43.878Z,4.55
2023-05-25T14:44:10.627Z,4.15
2023-05-25T14:46:37.398Z,4.38
2023-05-25T14:49:04.143Z,4.40
2023-05-25T14:51:30.830Z,4.38
2023-05-25T14:54:00.237Z,4.13
2023-05-25T14:56:27.989Z,4.53
2023-05-25T14:58:54.733Z,4.60
2023-05-25T15:01:23.664Z,4.88
2023-05-25T15:03:51.983Z,4.38
2023-05-25T15:06:18.855Z,3.65
2023-05-25T15:08:45.851Z,5.63
2023-05-25T15:11:12.633Z,4.03
2023-05-25T15:13:40.852Z,4.25
2023-05-25T15:16:11.798Z,4.25
2023-05-25T15:18:38.664Z,3.80
2023-05-25T15:21:05.589Z,4.10
2023-05-25T15:23:32.371Z,4.13
2023-05-25T15:26:03.929Z,4.72
2023-05-25T15:28:31.490Z,4.10
2023-05-25T15:30:59.530Z,4.18
2023-05-25T15:33:40.011Z,4.53
2023-05-25T15:36:15.589Z,3.53
2023-05-25T15:38:43.276Z,4.03
2023-05-25T15:41:11.312Z,3.90
2023-05-25T15:43:38.091Z,4.13
2023-05-25T15:46:04.830Z,3.53
2023-05-25T15:48:31.529Z,4.38
2023-05-25T15:50:58.247Z,4.32
2023-05-25T15:53:24.985Z,3.85
2023-05-25T15:55:51.739Z,3.60
2023-05-25T15:58:18.464Z,4.68
2023-05-25T16:00:45.353Z,4.60
2023-05-25T16:03:12.107Z,4.63
2023-05-25T16:05:38.962Z,4.53
2023-05-25T16:08:05.654Z,3.97
2023-05-25T16:10:32.428Z,3.47
2023-05-25T16:12:59.161Z,4.32
2023-05-25T16:15:26.095Z,4.13
2023-05-25T16:17:52.846Z,5.30
2023-05-25T16:20:19.645Z,3.38
2023-05-25T16:22:46.504Z,3.60
2023-05-25T16:25:13.269Z,4.28
2023-05-25T16:27:40.072Z,4.03
2023-05-25T16:30:07.422Z,4.22
2023-05-25T16:32:34.142Z,3.70
2023-05-25T16:35:01.564Z,3.70
2023-05-25T16:37:28.412Z,3.70
2023-05-25T16:39:55.214Z,4.15
2023-05-25T16:42:24.872Z,3.65
2023-05-25T16:44:51.942Z,3.92
2023-05-25T16:47:19.413Z,4.32
2023-05-25T16:49:46.107Z,4.10
2023-05-25T16:52:12.782Z,3.88
2023-05-25T16:54:39.500Z,3.75
2023-05-25T16:57:06.865Z,4.55
2023-05-25T16:59:33.579Z,4.03
2023-05-25T17:02:00.822Z,3.58
2023-05-25T17:04:27.583Z,3.55
2023-05-25T17:06:54.374Z,3.92
2023-05-25T17:09:21.155Z,3.25
2023-05-25T17:11:47.845Z,3.67
2023-05-25T17:14:14.578Z,3.67
2023-05-25T17:16:41.411Z,3.90
2023-05-25T17:19:08.262Z,3.53
2023-05-25T17:21:34.973Z,3.40
2023-05-25T17:24:01.732Z,4.05
2023-05-25T17:26:28.606Z,3.53
2023-05-25T17:28:57.757Z,3.95
2023-05-25T17:31:24.616Z,3.97
2023-05-25T17:33:51.463Z,3.88
2023-05-25T17:36:18.136Z,3.83
2023-05-25T17:38:44.952Z,4.13
2023-05-25T17:41:11.705Z,3.72
2023-05-25T17:43:38.369Z,3.75
2023-05-25T17:46:05.165Z,3.45
2023-05-25T17:48:31.983Z,3.55
2023-05-25T17:50:58.850Z,4.40
2023-05-25T17:53:25.710Z,3.55
2023-05-25T17:55:52.633Z,3.50
2023-05-25T17:58:19.368Z,3.50
2023-05-25T18:00:46.166Z,3.25
2023-05-25T18:03:13.114Z,3.25
2023-05-25T18:05:39.980Z,3.42
2023-05-25T18:08:06.787Z,3.47
2023-05-25T18:10:33.554Z,3.80
2023-05-25T18:13:00.448Z,3.28
2023-05-25T18:15:27.210Z,3.75
2023-05-25T18:17:53.941Z,3.38
2023-05-25T18:20:20.868Z,3.13
2023-05-25T18:22:47.668Z,3.60
2023-05-25T18:25:14.463Z,2.85
2023-05-25T18:27:41.653Z,3.67
2023-05-25T18:30:09.229Z,3.65
2023-05-25T18:32:36.169Z,3.13
2023-05-25T18:35:02.947Z,3.30
2023-05-25T18:37:34.020Z,3.65
2023-05-25T18:40:00.786Z,3.77
2023-05-25T18:42:27.457Z,3.65
2023-05-25T18:44:54.154Z,3.08
2023-05-25T18:47:20.952Z,3.20
2023-05-25T18:49:48.281Z,3.20
2023-05-25T18:52:15.604Z,2.80
2023-05-25T18:54:42.385Z,3.15
2023-05-25T18:57:09.095Z,3.67
2023-05-25T18:59:35.839Z,3.42
2023-05-25T19:02:02.591Z,3.72
2023-05-25T19:04:29.355Z,3.30
2023-05-25T19:06:56.070Z,3.53
2023-05-25T19:09:23.126Z,3.90
2023-05-25T19:11:49.862Z,3.30
2023-05-25T19:14:16.582Z,3.75
2023-05-25T19:16:43.427Z,3.83
2023-05-25T19:19:10.325Z,3.50
2023-05-25T19:21:37.037Z,3.70
2023-05-25T19:24:03.948Z,3.67
2023-05-25T19:26:30.671Z,3.50
2023-05-25T19:28:57.570Z,3.83
2023-05-25T19:31:24.410Z,4.35
2023-05-25T19:33:51.154Z,3.65
2023-05-25T19:36:17.929Z,4.65
2023-05-25T19:38:44.630Z,3.30
2023-05-25T19:41:11.466Z,3.72
2023-05-25T19:43:38.256Z,3.72
2023-05-25T19:46:05.302Z,5.10
2023-05-25T19:48:32.122Z,3.75
2023-05-25T19:50:59.237Z,3.55
2023-05-25T19:53:26.040Z,4.15
2023-05-25T19:55:52.778Z,4.18
2023-05-25T19:58:19.477Z,3.95
2023-05-25T20:00:46.211Z,3.72
2023-05-25T20:03:15.929Z,3.70
2023-05-25T20:05:43.743Z,3.90
2023-05-25T20:08:10.815Z,4.50
2023-05-25T20:10:39.400Z,3.92
2023-05-25T20:13:07.437Z,3.20
2023-05-25T20:15:34.516Z,4.13
2023-05-25T20:18:02.610Z,4.03
2023-05-25T20:20:29.495Z,4.80
2023-05-25T20:22:56.499Z,3.88
2023-05-25T20:25:23.272Z,4.55
2023-05-25T20:27:49.992Z,5.00
2023-05-25T20:30:17.204Z,5.30
2023-05-25T20:32:44.000Z,7.30
2023-05-25T20:35:10.792Z,5.90
2023-05-25T20:37:37.579Z,6.70
2023-05-25T20:40:06.589Z,6.32
2023-05-25T20:42:33.339Z,6.10
2023-05-25T20:45:00.188Z,6.03
2023-05-25T20:47:27.302Z,5.70
2023-05-25T20:49:54.134Z,5.85
2023-05-25T20:52:21.349Z,5.18
2023-05-25T20:54:48.148Z,5.72
2023-05-25T20:57:15.254Z,5.65
2023-05-25T20:59:42.024Z,5.78
2023-05-25T21:02:08.900Z,4.68
2023-05-25T21:04:35.747Z,4.80
2023-05-25T21:07:02.516Z,4.63
2023-05-25T21:09:29.252Z,4.35
2023-05-25T21:11:55.926Z,4.45
2023-05-25T21:14:22.671Z,4.32
2023-05-25T21:16:50.067Z,4.30
2023-05-25T21:19:17.179Z,4.47
2023-05-25T21:21:43.954Z,4.18
2023-05-25T21:24:10.894Z,4.78
2023-05-25T21:26:37.621Z,4.93
2023-05-25T21:29:04.395Z,4.40
2023-05-25T21:31:31.358Z,4.05
2023-05-25T21:34:00.030Z,4.38
2023-05-25T21:36:27.030Z,5.25
2023-05-25T21:38:53.852Z,5.15
2023-05-25T21:41:20.599Z,3.97
2023-05-25T21:43:47.333Z,5.10
2023-05-25T21:46:14.046Z,4.43
2023-05-25T21:48:40.750Z,4.65
2023-05-25T21:51:07.425Z,5.40
2023-05-25T21:53:34.107Z,5.10
2023-05-25T21:56:00.850Z,4.60
2023-05-25T21:58:27.562Z,4.75
2023-05-25T22:00:54.313Z,4.53
2023-05-25T22:03:21.301Z,5.32
2023-05-25T22:05:48.143Z,4.85
2023-05-25T22:08:14.890Z,4.72
2023-05-25T22:10:41.592Z,5.43
2023-05-25T22:13:08.327Z,4.60
2023-05-25T22:15:35.225Z,4.68
2023-05-25T22:18:02.337Z,4.22
2023-05-25T22:20:29.117Z,4.65
2023-05-25T22:22:55.937Z,4.60
2023-05-25T22:25:22.751Z,5.10
2023-05-25T22:27:49.508Z,4.57
2023-05-25T22:30:16.380Z,5.00
2023-05-25T22:32:43.161Z,4.38
2023-05-25T22:35:09.990Z,4.03
2023-05-25T22:37:36.872Z,4.72
2023-05-25T22:40:05.832Z,5.32
2023-05-25T22:42:32.613Z,4.68
2023-05-25T22:44:59.393Z,4.85
2023-05-25T22:47:26.116Z,4.45
2023-05-25T22:49:52.912Z,4.65
2023-05-25T22:52:19.732Z,4.65
2023-05-25T22:54:46.530Z,4.20
2023-05-25T22:57:13.391Z,4.80
2023-05-25T22:59:40.219Z,4.10
2023-05-25T23:02:07.556Z,4.80
2023-05-25T23:04:36.348Z,4.50
2023-05-25T23:07:03.303Z,5.40
2023-05-25T23:09:30.080Z,5.15
2023-05-25T23:11:56.809Z,5.03
2023-05-25T23:14:23.571Z,5.30
2023-05-25T23:16:50.417Z,5.03
2023-05-25T23:19:17.916Z,5.15
2023-05-25T23:21:44.634Z,5.07
2023-05-25T23:24:11.466Z,5.32
2023-05-25T23:26:38.221Z,5.43
2023-05-25T23:29:05.032Z,4.93
2023-05-25T23:31:31.847Z,4.65
2023-05-25T23:33:58.629Z,5.03
2023-05-25T23:36:28.711Z,4.82
2023-05-25T23:38:55.881Z,5.25
2023-05-25T23:41:23.091Z,5.00
2023-05-25T23:43:49.848Z,5.15
2023-05-25T23:46:17.321Z,4.90
2023-05-25T23:48:45.094Z,4.72
2023-05-25T23:51:12.180Z,4.75
2023-05-25T23:53:39.383Z,5.35
2023-05-25T23:56:06.428Z,3.92
2023-05-25T23:58:33.215Z,6.55
